Time;durP1;ratioP1;P1;durP2;ratioP2;P2;SDS_P1;SDS_P2;PMS_P1;PMS_P2;Temp;Humidity;BMP_temperature;BMP_pressure;BME280_temperature;BME280_humidity;BME280_pressure;Samples;Min_cycle;Max_cycle;Signal;HPM_P1;HPM_P2
2024/01/06 00:00:57;;;;;;;14.55;8.40;;;1.00;99.90;;;;;;5031215;28;20026;-74
2024/01/06 00:03:23;;;;;;;12.93;8.27;;;1.00;99.90;;;;;;5030646;28;20033;-74
2024/01/06 00:05:48;;;;;;;11.40;7.80;;;1.00;99.90;;;;;;5031331;28;20036;-73
2024/01/06 00:08:14;;;;;;;14.43;8.57;;;1.00;99.90;;;;;;5031742;28;20026;-73
2024/01/06 00:10:39;;;;;;;14.80;8.27;;;0.90;99.90;;;;;;5015019;28;20492;-73
2024/01/06 00:13:05;;;;;;;13.70;8.68;;;1.00;99.90;;;;;;5032898;28;20049;-73
2024/01/06 00:15:31;;;;;;;14.27;8.07;;;1.00;99.90;;;;;;5017153;28;20044;-74
2024/01/06 00:17:56;;;;;;;15.00;8.38;;;0.90;99.90;;;;;;5022319;28;20049;-73
2024/01/06 00:20:22;;;;;;;14.02;8.77;;;1.00;99.90;;;;;;5033288;28;20033;-74
2024/01/06 00:22:47;;;;;;;15.65;8.88;;;1.00;99.90;;;;;;5031816;28;20033;-74
2024/01/06 00:25:13;;;;;;;14.73;8.75;;;1.00;99.90;;;;;;5032431;28;20496;-74
2024/01/06 00:27:39;;;;;;;16.67;9.35;;;1.00;99.90;;;;;;5033134;28;20013;-74
2024/01/06 00:30:05;;;;;;;15.13;9.15;;;1.10;99.90;;;;;;5033795;28;20084;-73
2024/01/06 00:32:30;;;;;;;15.75;8.90;;;1.00;99.90;;;;;;5037927;28;20055;-73
2024/01/06 00:34:56;;;;;;;12.90;8.52;;;1.00;99.90;;;;;;5033369;28;20484;-74
2024/01/06 00:37:22;;;;;;;13.23;9.10;;;1.00;99.90;;;;;;5031176;28;20424;-73
2024/01/06 00:39:47;;;;;;;15.45;9.25;;;1.00;99.90;;;;;;5033082;28;20030;-74
2024/01/06 00:42:13;;;;;;;16.30;8.90;;;1.00;99.90;;;;;;5034539;28;20036;-73
2024/01/06 00:44:38;;;;;;;14.20;9.32;;;1.00;99.90;;;;;;5034719;28;20025;-74
2024/01/06 00:47:04;;;;;;;17.33;9.65;;;1.00;99.90;;;;;;5034249;28;20026;-74
2024/01/06 00:49:30;;;;;;;16.00;9.40;;;1.00;99.90;;;;;;5031941;28;20092;-75
2024/01/06 00:51:55;;;;;;;14.63;9.57;;;1.00;99.90;;;;;;5031317;28;20026;-74
2024/01/06 00:54:21;;;;;;;14.25;9.52;;;1.00;99.90;;;;;;5030267;28;20104;-73
2024/01/06 00:56:46;;;;;;;16.23;9.80;;;1.00;99.90;;;;;;5031156;28;20108;-74
2024/01/06 00:59:12;;;;;;;13.75;9.48;;;1.00;99.90;;;;;;5031306;28;20065;-73
2024/01/06 01:01:37;;;;;;;16.38;9.30;;;1.00;99.90;;;;;;5027063;28;20029;-74
2024/01/06 01:04:03;;;;;;;14.20;9.30;;;1.00;99.90;;;;;;5030025;28;20033;-74
2024/01/06 01:06:29;;;;;;;16.77;9.48;;;1.00;99.90;;;;;;5030695;28;20041;-74
2024/01/06 01:08:55;;;;;;;14.02;8.98;;;0.90;99.90;;;;;;5031058;28;20053;-74
2024/01/06 01:11:20;;;;;;;17.30;9.68;;;1.00;99.90;;;;;;5013466;28;20034;-74
2024/01/06 01:13:46;;;;;;;13.20;8.82;;;0.90;99.90;;;;;;5032385;28;20021;-74
2024/01/06 01:16:11;;;;;;;14.55;9.43;;;0.90;99.90;;;;;;5034991;28;20026;-74
2024/01/06 01:18:37;;;;;;;15.68;9.05;;;0.90;99.90;;;;;;5035222;28;20068;-73
2024/01/06 01:21:03;;;;;;;14.18;8.60;;;0.90;99.90;;;;;;5035067;28;20416;-73
2024/01/06 01:23:28;;;;;;;16.23;9.00;;;0.90;99.90;;;;;;5034818;28;20033;-73
2024/01/06 01:25:54;;;;;;;14.60;8.65;;;0.90;99.90;;;;;;5034675;28;20484;-74
2024/01/06 01:28:20;;;;;;;15.38;9.35;;;0.90;99.90;;;;;;5034426;28;20021;-73
2024/01/06 01:30:46;;;;;;;12.55;7.97;;;0.90;99.90;;;;;;5034678;28;20018;-75
2024/01/06 01:33:11;;;;;;;15.55;9.35;;;0.80;99.90;;;;;;5033935;28;20053;-75
2024/01/06 01:35:37;;;;;;;15.27;8.90;;;0.90;99.90;;;;;;5034229;28;20033;-74
2024/01/06 01:38:03;;;;;;;11.98;8.63;;;0.90;99.90;;;;;;5034563;28;20448;-74
2024/01/06 01:40:28;;;;;;;11.55;8.30;;;0.90;99.90;;;;;;5034523;28;20021;-74
2024/01/06 01:42:54;;;;;;;14.88;9.32;;;0.90;99.90;;;;;;5034438;28;20029;-77
2024/01/06 01:45:19;;;;;;;15.77;8.80;;;0.90;99.90;;;;;;5034017;28;20052;-75
2024/01/06 01:47:46;;;;;;;16.33;8.90;;;0.80;99.90;;;;;;5033880;28;20061;-74
2024/01/06 01:50:13;;;;;;;16.92;9.40;;;0.90;99.90;;;;;;5034224;28;20032;-74
2024/01/06 01:52:41;;;;;;;13.52;9.38;;;0.80;99.90;;;;;;5033545;28;20030;-72
2024/01/06 01:55:07;;;;;;;15.77;10.10;;;0.80;99.90;;;;;;5033701;28;20026;-73
2024/01/06 01:57:32;;;;;;;16.00;9.57;;;0.80;99.90;;;;;;5016204;28;20060;-73
2024/01/06 02:00:00;;;;;;;16.15;9.90;;;0.80;99.90;;;;;;5033448;28;20041;-73
2024/01/06 02:02:26;;;;;;;14.77;9.45;;;0.80;99.90;;;;;;5033896;28;20052;-73
2024/01/06 02:04:52;;;;;;;19.25;11.00;;;0.80;99.90;;;;;;5033017;28;20445;-74
2024/01/06 02:07:17;;;;;;;14.77;9.75;;;0.80;99.90;;;;;;5034129;28;20032;-75
2024/01/06 02:09:43;;;;;;;15.30;9.80;;;0.80;99.90;;;;;;5034014;28;20048;-74
2024/01/06 02:12:09;;;;;;;16.60;10.02;;;0.80;99.90;;;;;;5016186;28;20026;-74
2024/01/06 02:14:34;;;;;;;17.48;10.63;;;0.80;99.90;;;;;;5032467;28;20056;-74
2024/01/06 02:17:00;;;;;;;15.77;10.80;;;0.80;99.90;;;;;;5033413;28;20120;-72
2024/01/06 02:19:25;;;;;;;19.40;11.48;;;0.70;99.90;;;;;;5033964;28;20021;-73
2024/01/06 02:21:54;;;;;;;16.40;10.65;;;0.70;99.90;;;;;;5034036;28;20040;-73
2024/01/06 02:24:20;;;;;;;18.20;10.77;;;0.70;99.90;;;;;;5016249;28;20036;-73
2024/01/06 02:26:46;;;;;;;16.92;11.05;;;0.70;99.90;;;;;;5034268;28;20435;-72
2024/01/06 02:29:12;;;;;;;19.55;11.50;;;0.70;99.90;;;;;;5031964;28;20021;-72
2024/01/06 02:31:38;;;;;;;19.33;12.80;;;0.70;99.90;;;;;;5034190;28;20029;-73
2024/01/06 02:34:03;;;;;;;17.33;11.68;;;0.70;99.90;;;;;;5032587;28;20040;-73
2024/01/06 02:36:29;;;;;;;18.80;11.88;;;0.70;99.90;;;;;;5033423;28;20688;-72
2024/01/06 02:38:54;;;;;;;21.38;13.05;;;0.70;99.90;;;;;;5033253;28;20085;-72
2024/01/06 02:41:20;;;;;;;20.73;13.70;;;0.70;99.90;;;;;;5032821;28;20021;-73
2024/01/06 02:43:46;;;;;;;20.77;12.77;;;0.60;99.90;;;;;;5032537;28;20025;-73
2024/01/06 02:46:12;;;;;;;23.45;13.43;;;0.70;99.90;;;;;;5033038;28;20025;-72
2024/01/06 02:48:38;;;;;;;20.35;12.95;;;0.70;99.90;;;;;;5033304;28;20109;-73
2024/01/06 02:51:03;;;;;;;22.30;13.32;;;0.60;99.90;;;;;;5032914;28;20087;-72
2024/01/06 02:53:29;;;;;;;20.48;13.13;;;0.70;99.90;;;;;;5031514;28;20083;-73
2024/01/06 02:55:54;;;;;;;21.27;13.27;;;0.70;99.90;;;;;;5032386;28;20033;-72
2024/01/06 02:58:20;;;;;;;24.80;13.98;;;0.70;99.90;;;;;;5033797;28;20030;-72
2024/01/06 03:00:46;;;;;;;20.67;13.93;;;0.70;99.90;;;;;;5033655;28;20028;-72
2024/01/06 03:03:11;;;;;;;21.38;13.48;;;0.70;99.90;;;;;;5033521;28;20148;-72
2024/01/06 03:05:37;;;;;;;21.83;13.68;;;0.60;99.90;;;;;;5034013;28;20105;-72
2024/01/06 03:08:03;;;;;;;22.50;13.68;;;0.70;99.90;;;;;;5034026;28;20494;-72
2024/01/06 03:10:29;;;;;;;22.75;13.60;;;0.60;99.90;;;;;;5034467;28;20310;-73
2024/01/06 03:12:55;;;;;;;22.00;13.55;;;0.60;99.90;;;;;;5034138;28;20072;-75
2024/01/06 03:15:20;;;;;;;23.52;13.55;;;0.70;99.90;;;;;;5034714;28;20060;-74
2024/01/06 03:17:46;;;;;;;22.92;13.52;;;0.70;99.90;;;;;;5034642;28;20071;-73
2024/01/06 03:20:11;;;;;;;21.52;13.15;;;0.70;99.90;;;;;;5035208;28;20079;-75
2024/01/06 03:22:38;;;;;;;21.73;13.40;;;0.70;99.90;;;;;;5036495;28;20112;-74
2024/01/06 03:25:04;;;;;;;21.58;13.55;;;0.70;99.90;;;;;;5037875;28;20028;-74
2024/01/06 03:27:29;;;;;;;24.33;14.50;;;0.60;99.90;;;;;;5037446;28;20025;-74
2024/01/06 03:29:55;;;;;;;21.42;13.63;;;0.70;99.90;;;;;;5040572;28;20026;-74
2024/01/06 03:32:22;;;;;;;22.77;13.90;;;0.60;99.90;;;;;;5037496;28;20056;-73
2024/01/06 03:34:47;;;;;;;19.80;13.38;;;0.70;99.90;;;;;;5020493;28;20037;-73
2024/01/06 03:37:13;;;;;;;24.45;14.32;;;0.70;99.90;;;;;;5037069;28;20426;-72
2024/01/06 03:39:38;;;;;;;19.17;12.57;;;0.70;99.90;;;;;;5038795;28;20064;-73
2024/01/06 03:42:04;;;;;;;20.77;13.52;;;0.70;99.90;;;;;;5040453;28;20097;-73
2024/01/06 03:44:33;;;;;;;22.40;12.95;;;0.70;99.90;;;;;;5038745;28;20025;-72
2024/01/06 03:46:59;;;;;;;27.98;13.55;;;0.70;99.90;;;;;;5038702;28;20422;-73
2024/01/06 03:49:25;;;;;;;20.88;13.15;;;0.70;99.90;;;;;;5039902;28;20028;-72
2024/01/06 03:51:51;;;;;;;20.50;13.10;;;0.70;99.90;;;;;;5035192;28;20026;-72
2024/01/06 03:54:16;;;;;;;23.05;12.90;;;0.80;99.90;;;;;;5033438;28;20550;-71
2024/01/06 03:56:42;;;;;;;20.90;12.45;;;0.70;99.90;;;;;;5033478;28;20021;-71
2024/01/06 03:59:08;;;;;;;22.35;12.80;;;0.70;99.90;;;;;;5037635;28;20030;-71
2024/01/06 04:01:35;;;;;;;23.30;12.77;;;0.70;99.90;;;;;;5035861;28;20036;-71
2024/01/06 04:04:04;;;;;;;20.50;12.85;;;0.70;99.90;;;;;;5041282;28;20260;-74
2024/01/06 04:06:31;;;;;;;20.73;13.10;;;0.80;99.90;;;;;;5032498;28;20060;-71
2024/01/06 04:08:57;;;;;;;22.65;13.25;;;0.80;99.90;;;;;;5032219;28;20029;-72
2024/01/06 04:11:23;;;;;;;21.00;12.20;;;0.80;99.90;;;;;;5032247;28;20028;-71
2024/01/06 04:13:48;;;;;;;21.52;13.82;;;0.80;99.90;;;;;;5031588;28;20061;-71
2024/01/06 04:16:14;;;;;;;24.55;13.40;;;0.80;99.90;;;;;;5032068;28;20052;-72
2024/01/06 04:18:40;;;;;;;22.88;13.07;;;0.80;99.90;;;;;;5032754;28;20033;-71
2024/01/06 04:21:05;;;;;;;23.77;13.13;;;0.80;99.90;;;;;;5031925;28;20034;-72
2024/01/06 04:23:31;;;;;;;20.20;12.90;;;0.80;99.90;;;;;;5031916;28;20438;-72
2024/01/06 04:25:57;;;;;;;22.23;12.90;;;0.80;99.90;;;;;;5032388;28;20100;-73
2024/01/06 04:28:22;;;;;;;20.48;13.10;;;0.80;99.90;;;;;;5032272;28;20082;-71
2024/01/06 04:30:48;;;;;;;21.40;13.05;;;0.80;99.90;;;;;;5032049;28;20365;-72
2024/01/06 04:33:14;;;;;;;19.80;12.15;;;0.90;99.90;;;;;;5031606;28;20032;-72
2024/01/06 04:35:39;;;;;;;19.27;12.73;;;0.90;99.90;;;;;;5033419;28;20025;-73
2024/01/06 04:38:05;;;;;;;19.08;11.88;;;0.80;99.90;;;;;;5032796;28;20350;-74
2024/01/06 04:40:31;;;;;;;21.13;11.30;;;0.90;99.90;;;;;;5033255;28;20109;-75
2024/01/06 04:42:56;;;;;;;22.45;11.98;;;0.90;99.90;;;;;;5033702;28;20040;-75
2024/01/06 04:45:23;;;;;;;20.67;12.00;;;0.90;99.90;;;;;;5032500;28;20539;-75
2024/01/06 04:47:50;;;;;;;18.85;12.27;;;0.90;99.90;;;;;;5031842;28;20109;-74
2024/01/06 04:50:17;;;;;;;19.02;12.50;;;0.90;99.90;;;;;;5032350;28;20456;-74
2024/01/06 04:52:43;;;;;;;19.20;12.25;;;0.90;99.90;;;;;;5032455;28;20435;-74
2024/01/06 04:55:09;;;;;;;20.27;12.48;;;0.80;99.90;;;;;;5032642;28;20441;-75
2024/01/06 04:57:35;;;;;;;20.48;12.57;;;0.90;99.90;;;;;;5032204;28;20021;-76
2024/01/06 05:00:00;;;;;;;21.10;12.27;;;0.90;99.90;;;;;;5032946;28;20097;-75
2024/01/06 05:02:26;;;;;;;20.10;12.65;;;0.80;99.90;;;;;;5032760;28;20065;-74
2024/01/06 05:04:52;;;;;;;21.25;12.98;;;0.80;99.90;;;;;;5032071;28;20477;-75
2024/01/06 05:07:17;;;;;;;20.92;12.52;;;0.80;99.90;;;;;;5031981;28;20026;-74
2024/01/06 05:09:43;;;;;;;22.35;12.93;;;0.80;99.90;;;;;;5032565;28;20021;-76
2024/01/06 05:12:08;;;;;;;19.52;12.80;;;0.80;99.90;;;;;;5031946;28;20021;-74
2024/01/06 05:14:34;;;;;;;23.75;13.65;;;0.80;99.90;;;;;;5031480;28;20108;-74
2024/01/06 05:17:00;;;;;;;26.10;13.52;;;0.80;99.90;;;;;;5031522;28;20026;-74
2024/01/06 05:19:25;;;;;;;23.45;13.35;;;0.80;99.90;;;;;;5032422;28;20468;-74
2024/01/06 05:21:51;;;;;;;22.55;12.77;;;0.80;99.90;;;;;;5032362;28;20025;-75
2024/01/06 05:24:19;;;;;;;20.75;13.15;;;0.80;99.90;;;;;;5031588;28;20061;-74
2024/01/06 05:26:44;;;;;;;21.27;13.40;;;0.90;99.90;;;;;;5031616;28;20025;-74
2024/01/06 05:29:10;;;;;;;24.83;13.75;;;0.80;99.90;;;;;;5031520;28;20018;-74
2024/01/06 05:31:35;;;;;;;19.75;13.25;;;0.80;99.90;;;;;;5031617;28;20017;-74
2024/01/06 05:34:01;;;;;;;26.92;13.40;;;0.80;99.90;;;;;;5031004;28;20480;-75
2024/01/06 05:36:27;;;;;;;26.27;14.25;;;0.80;99.90;;;;;;5031531;28;20029;-75
2024/01/06 05:38:52;;;;;;;23.33;13.93;;;0.80;99.90;;;;;;5013837;28;20026;-75
2024/01/06 05:41:18;;;;;;;24.73;14.30;;;0.90;99.90;;;;;;5031544;28;20026;-74
2024/01/06 05:43:44;;;;;;;26.08;13.88;;;0.90;99.90;;;;;;5031482;28;20392;-75
2024/01/06 05:46:10;;;;;;;23.52;14.23;;;0.80;99.90;;;;;;5031453;28;20041;-74
2024/01/06 05:48:36;;;;;;;25.90;14.82;;;0.90;99.90;;;;;;5032743;28;20430;-75
2024/01/06 05:51:05;;;;;;;23.60;14.18;;;0.80;99.90;;;;;;5033681;28;20105;-74
2024/01/06 05:53:31;;;;;;;28.35;14.60;;;0.80;99.90;;;;;;5034867;28;20037;-76
2024/01/06 05:55:56;;;;;;;24.05;14.27;;;0.80;99.90;;;;;;5035214;28;20044;-74
2024/01/06 05:58:22;;;;;;;24.30;15.23;;;0.90;99.90;;;;;;5031150;28;20388;-74
2024/01/06 06:00:48;;;;;;;21.42;13.73;;;0.80;99.90;;;;;;5016836;28;20021;-75
2024/01/06 06:03:13;;;;;;;25.60;15.57;;;0.80;99.90;;;;;;5034542;28;20037;-75
2024/01/06 06:05:39;;;;;;;24.30;14.95;;;0.80;99.90;;;;;;5035451;28;20470;-75
2024/01/06 06:08:05;;;;;;;26.48;13.77;;;0.80;99.90;;;;;;5035414;28;20352;-76
2024/01/06 06:10:40;;;;;;;25.25;15.07;;;0.80;99.90;;;;;;5035227;28;20037;-75
2024/01/06 06:13:10;;;;;;;25.15;14.65;;;0.80;99.90;;;;;;5017285;28;20091;-76
2024/01/06 06:15:36;;;;;;;26.73;15.75;;;0.70;99.90;;;;;;5035122;28;20053;-76
2024/01/06 06:18:01;;;;;;;24.73;14.85;;;0.80;99.90;;;;;;5034792;28;20041;-75
2024/01/06 06:20:27;;;;;;;27.52;15.95;;;0.80;99.90;;;;;;5034508;28;20025;-76
2024/01/06 06:22:53;;;;;;;24.77;15.07;;;0.80;99.90;;;;;;5034405;28;20025;-75
2024/01/06 06:25:18;;;;;;;26.93;15.60;;;0.80;99.90;;;;;;5034066;28;20045;-74
2024/01/06 06:27:44;;;;;;;26.17;15.43;;;0.70;99.90;;;;;;5034565;28;20396;-75
2024/01/06 06:30:10;;;;;;;24.77;15.32;;;0.80;99.90;;;;;;5034544;28;20494;-73
2024/01/06 06:32:36;;;;;;;28.50;15.18;;;0.80;99.90;;;;;;5034466;28;20044;-73
2024/01/06 06:35:01;;;;;;;24.83;14.45;;;0.80;99.90;;;;;;5034448;28;20500;-73
2024/01/06 06:37:27;;;;;;;29.48;16.17;;;0.80;99.90;;;;;;5031708;28;20100;-73
2024/01/06 06:39:52;;;;;;;25.85;15.73;;;0.80;99.90;;;;;;5034110;28;20040;-77
2024/01/06 06:42:18;;;;;;;25.25;14.50;;;0.80;99.90;;;;;;5034979;28;20025;-74
2024/01/06 06:44:44;;;;;;;26.40;15.43;;;0.80;99.90;;;;;;5032945;28;20024;-75
2024/01/06 06:47:09;;;;;;;25.77;15.38;;;0.80;99.90;;;;;;5034780;28;20060;-74
2024/01/06 06:49:35;;;;;;;26.15;15.20;;;0.80;99.90;;;;;;5031821;28;20109;-74
2024/01/06 06:52:02;;;;;;;27.30;15.23;;;0.80;99.90;;;;;;5029889;28;20037;-74
2024/01/06 06:54:28;;;;;;;32.38;16.67;;;0.80;99.90;;;;;;5033248;28;20024;-73
2024/01/06 06:56:54;;;;;;;23.85;14.85;;;0.80;99.90;;;;;;5033571;28;20052;-74
2024/01/06 06:59:19;;;;;;;27.35;15.63;;;0.80;99.90;;;;;;5032223;28;20026;-73
2024/01/06 07:01:45;;;;;;;30.33;16.33;;;0.80;99.90;;;;;;5033256;28;20026;-75
2024/01/06 07:04:11;;;;;;;30.48;16.23;;;0.70;99.90;;;;;;5032669;28;20105;-73
2024/01/06 07:06:36;;;;;;;28.85;15.90;;;0.80;99.90;;;;;;5032762;28;20026;-74
2024/01/06 07:09:03;;;;;;;25.83;16.05;;;0.70;99.90;;;;;;5029070;28;20045;-75
2024/01/06 07:11:28;;;;;;;27.52;16.27;;;0.80;99.90;;;;;;5033295;28;20494;-74
2024/01/06 07:13:54;;;;;;;26.65;16.00;;;0.80;99.90;;;;;;5032307;28;20057;-75
2024/01/06 07:16:19;;;;;;;26.70;15.80;;;0.80;99.90;;;;;;5031199;28;20469;-74
2024/01/06 07:18:45;;;;;;;27.02;15.98;;;0.80;99.90;;;;;;5032845;28;20033;-73
2024/01/06 07:21:12;;;;;;;26.23;16.48;;;0.70;99.90;;;;;;5033084;28;20033;-74
2024/01/06 07:23:37;;;;;;;25.85;16.10;;;0.70;99.90;;;;;;5032464;28;20037;-74
2024/01/06 07:26:03;;;;;;;31.73;17.42;;;0.70;99.90;;;;;;5034570;28;20373;-75
2024/01/06 07:28:29;;;;;;;28.42;17.60;;;0.70;99.90;;;;;;5037189;28;20056;-75
2024/01/06 07:30:55;;;;;;;34.92;18.95;;;0.70;99.90;;;;;;5045063;28;20086;-75
2024/01/06 07:33:20;;;;;;;25.67;15.23;;;0.70;99.90;;;;;;5044412;28;20033;-77
2024/01/06 07:35:46;;;;;;;28.95;17.30;;;0.70;99.90;;;;;;5021232;28;20040;-75
2024/01/06 07:38:12;;;;;;;24.50;15.27;;;0.70;99.90;;;;;;5032472;28;20032;-73
2024/01/06 07:40:38;;;;;;;25.80;15.95;;;0.70;99.90;;;;;;5043749;28;20025;-73
2024/01/06 07:43:04;;;;;;;27.08;16.33;;;0.70;99.90;;;;;;5027183;28;20540;-71
2024/01/06 07:45:31;;;;;;;28.35;17.30;;;0.70;99.90;;;;;;5033271;28;20041;-73
2024/01/06 07:47:57;;;;;;;27.60;16.33;;;0.70;99.90;;;;;;5032979;28;20484;-72
2024/01/06 07:50:23;;;;;;;28.83;16.02;;;0.80;99.90;;;;;;5041514;28;20084;-71
2024/01/06 07:52:49;;;;;;;28.20;16.25;;;0.80;99.90;;;;;;5031794;28;20028;-73
2024/01/06 07:55:14;;;;;;;30.52;17.33;;;0.80;99.90;;;;;;5032439;28;20169;-75
2024/01/06 07:57:40;;;;;;;28.60;16.80;;;0.70;99.90;;;;;;5032795;28;20041;-73
2024/01/06 08:00:06;;;;;;;25.95;14.90;;;0.70;99.90;;;;;;5033892;28;20033;-72
2024/01/06 08:02:32;;;;;;;27.60;16.48;;;0.80;99.90;;;;;;5033430;28;20025;-73
2024/01/06 08:04:58;;;;;;;27.90;16.42;;;0.80;99.90;;;;;;5032545;28;20036;-72
2024/01/06 08:07:24;;;;;;;28.70;16.52;;;0.80;99.90;;;;;;5032584;28;20017;-71
2024/01/06 08:09:50;;;;;;;25.52;14.88;;;0.80;99.90;;;;;;5033195;28;20047;-73
2024/01/06 08:12:16;;;;;;;26.80;15.80;;;0.80;99.90;;;;;;5034211;28;20052;-71
2024/01/06 08:14:42;;;;;;;27.60;16.13;;;0.70;99.90;;;;;;5031679;28;20033;-71
2024/01/06 08:17:07;;;;;;;27.88;15.35;;;0.80;99.90;;;;;;5032805;28;20025;-73
2024/01/06 08:19:33;;;;;;;26.58;15.32;;;0.80;99.90;;;;;;5033086;28;20083;-74
2024/01/06 08:21:59;;;;;;;26.15;15.23;;;0.80;99.90;;;;;;5032234;28;20036;-74
2024/01/06 08:24:24;;;;;;;26.27;16.00;;;0.80;99.90;;;;;;5033853;28;20033;-74
2024/01/06 08:26:50;;;;;;;27.40;15.63;;;0.80;99.90;;;;;;5033170;28;20037;-77
2024/01/06 08:29:19;;;;;;;25.83;15.05;;;0.80;99.90;;;;;;5032170;28;20495;-73
2024/01/06 08:31:44;;;;;;;25.05;15.25;;;0.90;99.90;;;;;;5032336;28;20060;-74
2024/01/06 08:34:10;;;;;;;25.33;15.27;;;0.90;99.90;;;;;;5014419;28;20037;-75
2024/01/06 08:36:36;;;;;;;27.15;15.68;;;0.90;99.90;;;;;;5033834;28;20037;-70
2024/01/06 08:39:01;;;;;;;26.58;14.68;;;0.90;99.90;;;;;;5032853;28;20036;-73
2024/01/06 08:41:27;;;;;;;28.02;15.77;;;0.90;99.90;;;;;;5032925;28;20053;-73
2024/01/06 08:43:52;;;;;;;29.13;15.32;;;0.90;99.90;;;;;;5032111;28;20029;-72
2024/01/06 08:46:18;;;;;;;26.88;15.02;;;0.90;99.90;;;;;;5032600;28;20036;-75
2024/01/06 08:48:43;;;;;;;25.70;14.63;;;0.80;99.90;;;;;;5034087;28;20067;-73
2024/01/06 08:51:09;;;;;;;23.85;14.13;;;0.80;99.90;;;;;;5048284;28;20073;-73
2024/01/06 08:53:35;;;;;;;26.80;15.40;;;0.80;99.90;;;;;;5046777;28;20032;-71
2024/01/06 08:56:00;;;;;;;24.40;14.77;;;0.80;99.90;;;;;;5049267;28;20039;-74
2024/01/06 08:58:27;;;;;;;26.50;15.32;;;0.90;99.90;;;;;;5054910;28;20029;-73
2024/01/06 09:00:53;;;;;;;27.10;14.50;;;0.90;99.90;;;;;;5055625;28;20031;-74
2024/01/06 09:03:24;;;;;;;27.38;14.98;;;0.90;99.90;;;;;;5054057;28;20036;-78
2024/01/06 09:05:51;;;;;;;24.45;14.18;;;0.90;99.90;;;;;;5038124;28;20022;-74
2024/01/06 09:08:17;;;;;;;28.80;16.67;;;0.80;99.90;;;;;;5032883;28;20029;-73
2024/01/06 09:10:43;;;;;;;28.65;15.35;;;0.80;99.90;;;;;;5034587;28;20097;-74
2024/01/06 09:13:08;;;;;;;31.23;15.68;;;0.90;99.90;;;;;;5035355;28;20033;-74
2024/01/06 09:15:34;;;;;;;35.47;15.50;;;0.90;99.90;;;;;;5035083;28;20038;-74
2024/01/06 09:18:00;;;;;;;32.78;14.75;;;1.00;99.90;;;;;;5035583;28;20060;-73
2024/01/06 09:20:27;;;;;;;26.35;14.88;;;1.00;99.90;;;;;;5034364;28;20097;-73
2024/01/06 09:22:53;;;;;;;28.10;15.07;;;1.00;99.90;;;;;;5035275;28;20418;-73
2024/01/06 09:25:18;;;;;;;27.05;15.32;;;1.00;99.90;;;;;;5036474;28;20029;-78
2024/01/06 09:27:44;;;;;;;26.38;14.88;;;1.00;99.90;;;;;;5034271;28;20030;-80
2024/01/06 09:30:10;;;;;;;29.45;15.40;;;1.00;99.90;;;;;;5016470;28;20033;-78
2024/01/06 09:32:36;;;;;;;26.30;13.75;;;1.00;99.90;;;;;;5031862;28;20022;-76
2024/01/06 09:35:03;;;;;;;25.90;14.57;;;1.00;99.90;;;;;;5034067;28;20041;-74
2024/01/06 09:37:29;;;;;;;25.85;14.15;;;1.10;99.90;;;;;;5035471;28;20455;-75
2024/01/06 09:39:54;;;;;;;29.15;14.40;;;1.10;99.90;;;;;;5035238;28;20037;-73
2024/01/06 09:42:20;;;;;;;27.48;15.15;;;1.10;99.90;;;;;;5035468;28;20080;-71
2024/01/06 09:44:46;;;;;;;29.42;16.52;;;1.10;99.90;;;;;;5034825;28;20018;-72
2024/01/06 09:47:12;;;;;;;30.35;16.30;;;1.10;99.90;;;;;;5035142;28;20037;-72
2024/01/06 09:49:41;;;;;;;29.65;15.40;;;1.00;99.90;;;;;;5035060;28;20026;-74
2024/01/06 09:52:17;;;;;;;27.23;14.95;;;1.10;99.90;;;;;;5034480;28;20036;-73
2024/01/06 09:54:49;;;;;;;27.88;16.63;;;1.10;99.90;;;;;;5023711;28;20014;-73
2024/01/06 09:57:15;;;;;;;27.27;15.63;;;1.10;99.90;;;;;;5038685;28;20030;-73
2024/01/06 09:59:43;;;;;;;26.80;14.63;;;1.00;99.90;;;;;;5056661;28;20037;-72
2024/01/06 10:02:13;;;;;;;25.58;14.40;;;1.00;99.90;;;;;;5056206;28;20020;-73
2024/01/06 10:04:38;;;;;;;28.48;15.15;;;1.00;99.90;;;;;;5053673;28;20025;-73
2024/01/06 10:07:05;;;;;;;31.35;15.65;;;1.10;99.90;;;;;;5054467;28;20027;-74
2024/01/06 10:09:30;;;;;;;25.80;14.32;;;1.10;99.90;;;;;;5053890;28;20017;-72
2024/01/06 10:11:57;;;;;;;29.30;14.98;;;1.10;99.90;;;;;;5055099;28;20025;-73
2024/01/06 10:14:24;;;;;;;32.03;16.50;;;1.10;99.90;;;;;;5053692;28;20108;-72
2024/01/06 10:16:51;;;;;;;28.08;14.75;;;1.10;99.90;;;;;;5054639;28;20064;-71
2024/01/06 10:19:16;;;;;;;29.38;16.05;;;1.10;99.90;;;;;;5054373;28;20344;-71
2024/01/06 10:21:43;;;;;;;29.95;15.05;;;1.10;99.90;;;;;;5054145;28;20025;-73
2024/01/06 10:24:09;;;;;;;27.40;14.73;;;1.10;99.90;;;;;;5053789;28;20021;-74
2024/01/06 10:26:35;;;;;;;29.65;15.13;;;1.10;99.90;;;;;;5053939;28;20027;-76
2024/01/06 10:29:01;;;;;;;30.77;15.48;;;1.20;99.90;;;;;;5054682;28;20100;-76
2024/01/06 10:31:27;;;;;;;26.85;13.95;;;1.10;99.90;;;;;;5054128;28;20487;-74
2024/01/06 10:33:52;;;;;;;21.40;13.00;;;1.10;99.90;;;;;;5052852;28;20075;-74
2024/01/06 10:36:18;;;;;;;27.48;14.75;;;1.10;99.90;;;;;;5053907;28;20036;-75
2024/01/06 10:38:47;;;;;;;27.90;14.75;;;1.10;99.90;;;;;;5054877;28;20061;-77
2024/01/06 10:41:15;;;;;;;26.52;14.52;;;1.10;99.90;;;;;;5057479;28;20032;-74
2024/01/06 10:43:43;;;;;;;28.75;14.85;;;1.10;99.90;;;;;;5055828;28;20045;-74
2024/01/06 10:46:12;;;;;;;24.67;13.45;;;1.10;99.90;;;;;;5055225;28;20021;-73
2024/01/06 10:48:42;;;;;;;23.58;13.15;;;1.10;99.90;;;;;;5037227;28;20117;-75
2024/01/06 10:51:12;;;;;;;25.20;13.73;;;1.10;99.90;;;;;;5037001;28;20040;-74
2024/01/06 10:53:39;;;;;;;23.63;13.48;;;1.10;99.90;;;;;;5052746;28;20554;-73
2024/01/06 10:56:07;;;;;;;25.20;13.45;;;1.20;99.90;;;;;;5053256;28;20147;-74
2024/01/06 10:58:42;;;;;;;26.80;12.57;;;1.10;99.90;;;;;;5053305;28;20060;-73
2024/01/06 11:01:08;;;;;;;23.80;12.20;;;1.20;99.90;;;;;;5053856;28;20480;-73
2024/01/06 11:03:38;;;;;;;23.13;12.07;;;1.20;99.90;;;;;;5053154;28;20112;-75
2024/01/06 11:06:10;;;;;;;25.52;12.40;;;1.10;99.90;;;;;;5054130;28;20566;-74
2024/01/06 11:08:49;;;;;;;20.02;11.57;;;1.10;99.90;;;;;;5036727;28;20064;-74
2024/01/06 11:11:25;;;;;;;20.17;11.57;;;1.10;99.90;;;;;;5054273;28;20017;-74
2024/01/06 11:13:50;;;;;;;24.63;11.95;;;1.10;99.90;;;;;;5053283;28;20572;-73
2024/01/06 11:16:37;;;;;;;24.50;12.35;;;1.10;99.90;;;;;;5053784;28;20152;-73
2024/01/06 11:19:23;;;;;;;23.48;12.50;;;1.10;99.90;;;;;;5053686;28;20084;-74
2024/01/06 11:21:48;;;;;;;23.00;11.77;;;1.10;99.90;;;;;;5053236;28;20052;-74
2024/01/06 11:24:22;;;;;;;20.30;11.52;;;1.20;99.90;;;;;;5056711;28;20036;-73
2024/01/06 11:26:53;;;;;;;24.30;11.23;;;1.10;99.90;;;;;;5054585;28;20041;-73
2024/01/06 11:29:20;;;;;;;23.70;11.77;;;1.10;99.90;;;;;;5061728;28;20025;-74
2024/01/06 11:32:17;;;;;;;21.50;11.30;;;1.20;99.90;;;;;;5044522;28;20025;-75
2024/01/06 11:34:46;;;;;;;25.05;10.57;;;1.20;99.90;;;;;;5062000;28;20246;-74
2024/01/06 11:37:13;;;;;;;20.77;10.68;;;1.10;99.90;;;;;;5040664;28;20029;-73
2024/01/06 11:39:41;;;;;;;23.05;9.55;;;1.10;99.90;;;;;;5053170;28;20025;-73
2024/01/06 11:42:10;;;;;;;18.15;9.35;;;1.10;99.90;;;;;;5052276;28;20029;-72
2024/01/06 11:44:42;;;;;;;14.85;8.57;;;1.10;99.90;;;;;;5054996;28;20020;-75
2024/01/06 11:47:11;;;;;;;19.75;8.82;;;1.10;99.90;;;;;;5034386;28;20028;-74
2024/01/06 11:49:37;;;;;;;23.05;10.30;;;1.10;99.90;;;;;;5055917;28;20017;-77
2024/01/06 11:52:03;;;;;;;16.92;9.43;;;1.10;99.90;;;;;;5039395;28;20031;-78
2024/01/06 11:54:30;;;;;;;17.02;9.30;;;1.10;99.90;;;;;;5057545;28;20028;-79
2024/01/06 11:56:57;;;;;;;16.25;9.40;;;1.10;99.90;;;;;;5038697;28;20029;-76
2024/01/06 11:59:23;;;;;;;17.98;8.93;;;1.00;99.90;;;;;;5053690;28;20031;-77
2024/01/06 12:01:48;;;;;;;18.08;8.52;;;1.00;99.90;;;;;;5051904;28;20415;-78
2024/01/06 12:04:15;;;;;;;14.32;8.30;;;1.00;99.90;;;;;;5051065;28;20436;-74
2024/01/06 12:06:41;;;;;;;15.50;8.57;;;1.10;99.90;;;;;;5051917;28;20104;-75
2024/01/06 12:09:09;;;;;;;16.10;9.07;;;1.00;99.90;;;;;;5051730;28;20060;-75
2024/01/06 12:11:34;;;;;;;20.05;9.35;;;1.00;99.90;;;;;;5051994;28;20025;-72
2024/01/06 12:14:00;;;;;;;19.33;8.77;;;1.00;99.90;;;;;;5050852;28;20102;-73
2024/01/06 12:16:28;;;;;;;17.88;8.32;;;1.00;99.90;;;;;;5053812;28;20025;-75
2024/01/06 12:18:56;;;;;;;17.95;9.55;;;1.00;99.90;;;;;;5056922;28;20087;-78
2024/01/06 12:21:25;;;;;;;17.20;9.40;;;1.10;99.90;;;;;;5053144;28;20085;-75
2024/01/06 12:23:50;;;;;;;13.60;7.90;;;1.00;99.90;;;;;;5051335;28;20037;-76
2024/01/06 12:26:19;;;;;;;15.52;8.00;;;1.00;99.90;;;;;;5052587;28;20059;-75
2024/01/06 12:28:46;;;;;;;14.65;7.93;;;1.00;99.90;;;;;;5051453;28;20021;-75
2024/01/06 12:31:12;;;;;;;17.20;9.18;;;0.90;99.90;;;;;;5051535;28;20518;-74
2024/01/06 12:33:41;;;;;;;18.40;8.63;;;0.90;99.90;;;;;;5054212;28;20025;-74